Buckley Air Force Base
KBKF : now visible

Airfield :











YOU CAN JOIN US ON...

 
LOGIN :

Register | Disclaimer

   EN    FR    IT 

 









Legend :    VFR   Marginal VFR   IFR   Intensive IFR   Very Intensive IFR
Visi :
Ceiling :
>= 8 km
>= 3000ft
5 to 8 km
1000 to 3000 ft
1500m to 5 km
500 to 1000 ft
800 to 1500m
200 to 500 ft
< 800m
< 200 ft
Symbols :   Thunderstorms  Fog  Heavy snow  Heavy precipitations  Wind > 20 kt







- Airport Elevation : 5662 ft


KBKF - Buckley Air Force Base

CURRENT METAR :
  • 162058Z 00000KT 10SM SCT120 BKN220 28/00 A2998 RMK AO2A SLP074 T02820000 57016

EXPIRED METARs :
  • 161958Z 16006KT 10SM FEW090 FEW140 SCT220 28/M01 A2999 RMK AO2A SLP075 T02771013
  • 161858Z 00000KT 10SM FEW090 FEW140 SCT220 29/M01 A3001 RMK AO2A SLP082 T02861006

TAF TAF KBKF
Valid from the 16 at 17:00 until the 17 at 23:00 UTC


161700Z 1617/1723 23009KT 9999 SCT100 QNH3002INS
BECMG 1623/1624 23009KT 9999 BKN080 QNH2995INS
BECMG 1708/1709 23010G15KT 9999 FEW120 QNH2993INS TX29/1622Z TN13/1712Z
No reported NOTAMs for that airfield.



MET'MAP, your aeronautical weather chart ! - Copyright ORBIFLY December 2007 - Disclaimer

ORBIFLY MET'MAP TEAM :

Programming & Development : Alexandra Zaïnal
Concept & Development : Baudouin d'Aumeries
Co-Development & Prog : Marc-Olivier Méhu
Technical & hardware support : Manuel Goepfert

Contact : metmap@orbifly.com




SOURCES & CREDITS :

   NOAA       Earth
Advisory